createdAt,value
2019-03-16T00:00:29.168Z,20.8
2019-03-16T00:01:19.213Z,20.8
2019-03-16T00:02:08.994Z,20.8
2019-03-16T00:02:59.331Z,20.8
2019-03-16T00:03:49.106Z,20.8
2019-03-16T00:04:39.177Z,20.8
2019-03-16T00:05:28.505Z,20.8
2019-03-16T00:06:19.103Z,20.8
2019-03-16T00:07:08.858Z,20.8
2019-03-16T00:07:59.211Z,20.8
2019-03-16T00:08:49.478Z,20.8
2019-03-16T00:09:39.808Z,20.8
2019-03-16T00:10:29.856Z,20.8
2019-03-16T00:11:19.666Z,20.8
2019-03-16T00:12:09.433Z,20.8
2019-03-16T00:13:00.036Z,20.8
2019-03-16T00:13:49.538Z,20.8
2019-03-16T00:14:39.605Z,20.8
2019-03-16T00:15:29.698Z,20.8
2019-03-16T00:16:19.981Z,20.8
2019-03-16T00:17:10.063Z,20.7
2019-03-16T00:17:59.603Z,20.8
2019-03-16T00:18:49.893Z,20.8
2019-03-16T00:19:40.503Z,20.8
2019-03-16T00:20:30.580Z,20.8
2019-03-16T00:21:20.347Z,20.8
2019-03-16T00:22:10.158Z,20.7
2019-03-16T00:23:00.905Z,20.8
2019-03-16T00:23:50.267Z,20.7
2019-03-16T00:24:40.590Z,20.8
2019-03-16T00:25:31.018Z,20.8
2019-03-16T00:26:20.720Z,20.7
2019-03-16T00:27:10.775Z,20.7
2019-03-16T00:28:00.541Z,20.7
2019-03-16T00:28:50.902Z,20.7
2019-03-16T00:29:40.979Z,20.7
2019-03-16T00:30:30.529Z,20.7
2019-03-16T00:31:21.067Z,20.7
2019-03-16T00:32:16.634Z,20.7
2019-03-16T00:33:00.707Z,20.7
2019-03-16T00:33:51.025Z,20.7
2019-03-16T00:34:40.826Z,20.7
2019-03-16T00:35:30.632Z,20.7
2019-03-16T00:36:21.688Z,20.7
2019-03-16T00:37:11.474Z,20.7
2019-03-16T00:38:01.259Z,20.6
2019-03-16T00:38:51.586Z,20.7
2019-03-16T00:39:41.928Z,20.7
2019-03-16T00:40:31.420Z,20.7
2019-03-16T00:41:21.767Z,20.7
2019-03-16T00:42:11.811Z,20.7
2019-03-16T00:43:02.168Z,20.6
2019-03-16T00:43:51.940Z,20.7
2019-03-16T00:44:42.015Z,20.7
2019-03-16T00:45:31.521Z,20.7
2019-03-16T00:46:22.133Z,20.7
2019-03-16T00:47:11.918Z,20.7
2019-03-16T00:48:02.524Z,20.6
2019-03-16T00:48:52.586Z,20.6
2019-03-16T00:49:42.641Z,20.6
2019-03-16T00:50:32.155Z,20.6
2019-03-16T00:51:22.476Z,20.6
2019-03-16T00:52:12.529Z,20.6
2019-03-16T00:53:02.578Z,20.6
2019-03-16T00:53:52.380Z,20.6
2019-03-16T00:54:42.444Z,20.6
2019-03-16T00:55:32.509Z,20.6
2019-03-16T00:56:23.123Z,20.6
2019-03-16T00:57:12.624Z,20.6
2019-03-16T00:58:02.673Z,20.6
2019-03-16T00:58:52.731Z,20.6
2019-03-16T00:59:43.410Z,20.6
2019-03-16T01:00:33.402Z,20.6
2019-03-16T01:01:23.183Z,20.6
2019-03-16T01:02:26.078Z,20.6
2019-03-16T01:03:03.318Z,20.6
2019-03-16T01:03:53.645Z,20.6
2019-03-16T01:04:43.436Z,20.6
2019-03-16T01:05:33.513Z,20.6
2019-03-16T01:06:23.278Z,20.6
2019-03-16T01:07:12.779Z,20.6
2019-03-16T01:08:03.405Z,20.6
2019-03-16T01:08:53.455Z,20.6
2019-03-16T01:09:46.867Z,20.6
2019-03-16T01:10:33.875Z,20.6
2019-03-16T01:11:24.190Z,20.6
2019-03-16T01:12:14.040Z,20.6
2019-03-16T01:13:03.754Z,20.6
2019-03-16T01:13:53.519Z,20.6
2019-03-16T01:14:44.419Z,20.6
2019-03-16T01:15:33.904Z,20.6
2019-03-16T01:16:24.307Z,20.6
2019-03-16T01:17:14.024Z,20.6
2019-03-16T01:18:04.364Z,20.6
2019-03-16T01:18:54.139Z,20.6
2019-03-16T01:19:44.480Z,20.6
2019-03-16T01:20:34.534Z,20.6
2019-03-16T01:21:24.919Z,20.6
2019-03-16T01:22:14.672Z,20.6
2019-03-16T01:23:04.459Z,20.6
2019-03-16T01:23:55.069Z,20.6
2019-03-16T01:24:44.839Z,20.6
2019-03-16T01:25:34.899Z,20.6
2019-03-16T01:26:24.779Z,20.6
2019-03-16T01:27:15.284Z,20.6
2019-03-16T01:28:05.081Z,20.6
2019-03-16T01:28:55.145Z,20.6
2019-03-16T01:29:45.196Z,20.6
2019-03-16T01:30:35.086Z,20.6
2019-03-16T01:31:25.333Z,20.6
2019-03-16T01:32:15.372Z,20.6
2019-03-16T01:33:05.724Z,20.6
2019-03-16T01:33:55.492Z,20.6
2019-03-16T01:34:47.371Z,20.5
2019-03-16T01:35:35.896Z,20.6
2019-03-16T01:36:25.954Z,20.6
2019-03-16T01:37:14.914Z,20.6
2019-03-16T01:38:05.801Z,20.6
2019-03-16T01:38:55.837Z,20.6
2019-03-16T01:39:45.918Z,20.6
2019-03-16T01:40:35.837Z,20.6
2019-03-16T01:41:25.813Z,20.6
2019-03-16T01:42:15.878Z,20.5
2019-03-16T01:43:05.665Z,20.6
2019-03-16T01:43:55.184Z,20.6
2019-03-16T01:44:46.273Z,20.5
2019-03-16T01:45:36.322Z,20.6
2019-03-16T01:46:26.399Z,20.5
2019-03-16T01:47:16.438Z,20.5
2019-03-16T01:48:06.520Z,20.5
2019-03-16T01:48:56.272Z,20.5
2019-03-16T01:49:46.885Z,20.5
2019-03-16T01:50:37.068Z,20.5
2019-03-16T01:51:26.742Z,20.6
2019-03-16T01:52:16.543Z,20.5
2019-03-16T01:53:06.848Z,20.5
2019-03-16T01:53:56.643Z,20.5
2019-03-16T01:54:46.962Z,20.5
2019-03-16T01:55:37.297Z,20.5
2019-03-16T01:56:27.363Z,20.5
2019-03-16T01:57:17.239Z,20.5
2019-03-16T01:58:07.492Z,20.5
2019-03-16T01:58:57.547Z,20.5
2019-03-16T01:59:47.323Z,20.5
2019-03-16T02:00:37.110Z,20.5
2019-03-16T02:01:27.755Z,20.5
2019-03-16T02:02:16.944Z,20.5
2019-03-16T02:03:07.280Z,20.5
2019-03-16T02:03:57.698Z,20.5
2019-03-16T02:04:47.744Z,20.5
2019-03-16T02:05:37.224Z,20.5
2019-03-16T02:06:27.794Z,20.5
2019-03-16T02:07:18.127Z,20.5
2019-03-16T02:08:07.720Z,20.5
2019-03-16T02:08:57.497Z,20.5
2019-03-16T02:09:47.251Z,20.5
2019-03-16T02:10:37.814Z,20.5
2019-03-16T02:11:27.860Z,20.5
2019-03-16T02:12:17.930Z,20.5
2019-03-16T02:13:07.990Z,20.5
2019-03-16T02:13:58.334Z,20.5
2019-03-16T02:14:48.676Z,20.4
2019-03-16T02:15:38.469Z,20.4
2019-03-16T02:16:28.516Z,20.5
2019-03-16T02:17:18.286Z,20.5
2019-03-16T02:18:07.800Z,20.5
2019-03-16T02:18:58.674Z,20.5
2019-03-16T02:19:49.004Z,20.5
2019-03-16T02:20:38.518Z,20.5
2019-03-16T02:21:29.028Z,20.5
2019-03-16T02:22:18.967Z,20.4
2019-03-16T02:23:08.698Z,20.4
2019-03-16T02:23:58.556Z,20.5
2019-03-16T02:24:49.418Z,20.5
2019-03-16T02:25:39.206Z,20.4
2019-03-16T02:26:29.488Z,20.4
2019-03-16T02:27:19.548Z,20.4
2019-03-16T02:28:09.596Z,20.4
2019-03-16T02:28:59.668Z,20.4
2019-03-16T02:29:49.437Z,20.4
2019-03-16T02:30:39.263Z,20.4
2019-03-16T02:31:29.878Z,20.4
2019-03-16T02:32:19.370Z,20.4
2019-03-16T02:33:16.801Z,20.4
2019-03-16T02:33:59.769Z,20.4
2019-03-16T02:34:50.100Z,20.4
2019-03-16T02:35:39.643Z,20.4
2019-03-16T02:36:29.685Z,20.5
2019-03-16T02:37:20.019Z,20.4
2019-03-16T02:38:09.801Z,20.4
2019-03-16T02:39:00.122Z,20.4
2019-03-16T02:39:49.652Z,20.4
2019-03-16T02:40:40.234Z,20.4
2019-03-16T02:41:30.352Z,20.4
2019-03-16T02:42:20.771Z,20.4
2019-03-16T02:43:10.143Z,20.4
2019-03-16T02:44:00.210Z,20.4
2019-03-16T02:44:50.942Z,20.4
2019-03-16T02:45:40.423Z,20.4
2019-03-16T02:46:30.939Z,20.4
2019-03-16T02:47:20.253Z,20.4
2019-03-16T02:48:10.336Z,20.4
2019-03-16T02:49:00.367Z,20.4
2019-03-16T02:49:50.637Z,20.4
2019-03-16T02:50:40.982Z,20.4
2019-03-16T02:51:31.000Z,20.4
2019-03-16T02:52:21.106Z,20.4
2019-03-16T02:53:11.054Z,20.4
2019-03-16T02:54:01.214Z,20.4
2019-03-16T02:54:51.252Z,20.4
2019-03-16T02:55:41.280Z,20.4
2019-03-16T02:56:31.381Z,20.4
2019-03-16T02:57:21.414Z,20.4
2019-03-16T02:58:11.525Z,20.4
2019-03-16T02:59:01.636Z,20.4
2019-03-16T02:59:51.730Z,20.4
2019-03-16T03:00:41.939Z,20.4
2019-03-16T03:01:32.004Z,20.4
2019-03-16T03:02:22.126Z,20.4
2019-03-16T03:03:30.561Z,20.4
2019-03-16T03:04:01.766Z,20.4
2019-03-16T03:07:33.831Z,20.4
2019-03-16T03:08:23.596Z,20.4
2019-03-16T03:09:13.641Z,20.4
2019-03-16T03:10:04.109Z,20.4
2019-03-16T03:10:54.059Z,20.4
2019-03-16T03:11:43.799Z,20.4
2019-03-16T03:12:34.191Z,20.4
2019-03-16T03:13:23.707Z,20.4
2019-03-16T03:14:14.504Z,20.4
2019-03-16T03:15:04.342Z,20.4
2019-03-16T03:15:54.385Z,20.4
2019-03-16T03:16:44.461Z,20.4
2019-03-16T03:17:34.550Z,20.4
2019-03-16T03:18:24.005Z,20.4
2019-03-16T03:19:14.398Z,20.4
2019-03-16T03:20:04.465Z,20.4
2019-03-16T03:20:54.653Z,20.4
2019-03-16T03:21:44.821Z,20.4
2019-03-16T03:22:34.842Z,20.4
2019-03-16T03:23:24.940Z,20.4
2019-03-16T03:24:14.713Z,20.4
2019-03-16T03:25:05.040Z,20.4
2019-03-16T03:25:55.205Z,20.4
2019-03-16T03:26:45.322Z,20.4
2019-03-16T03:27:34.965Z,20.4
2019-03-16T03:28:25.281Z,20.4
2019-03-16T03:29:15.315Z,20.4
2019-03-16T03:30:05.724Z,20.4
2019-03-16T03:30:55.531Z,20.4
2019-03-16T03:31:45.033Z,20.4
2019-03-16T03:32:35.730Z,20.4
2019-03-16T03:33:25.549Z,20.4
2019-03-16T03:34:15.744Z,20.4
2019-03-16T03:35:06.040Z,20.4
2019-03-16T03:35:55.520Z,20.4
2019-03-16T03:36:45.982Z,20.4
2019-03-16T03:37:35.676Z,20.4
2019-03-16T03:38:25.692Z,20.4
2019-03-16T03:39:15.201Z,20.4
2019-03-16T03:40:06.102Z,20.4
2019-03-16T03:40:56.233Z,20.4
2019-03-16T03:41:46.277Z,20.4
2019-03-16T03:42:36.370Z,20.4
2019-03-16T03:43:26.079Z,20.4
2019-03-16T03:44:16.449Z,20.4
2019-03-16T03:45:05.959Z,20.4
2019-03-16T03:45:56.506Z,20.4
2019-03-16T03:46:46.293Z,20.4
2019-03-16T03:47:36.394Z,20.4
2019-03-16T03:48:26.427Z,20.4
2019-03-16T03:49:16.571Z,20.4
2019-03-16T03:50:06.509Z,20.4
2019-03-16T03:50:56.966Z,20.4
2019-03-16T03:51:46.651Z,20.4
2019-03-16T03:52:36.424Z,20.3
2019-03-16T03:53:26.746Z,20.4
2019-03-16T03:54:16.546Z,20.4
2019-03-16T03:55:06.931Z,20.4
2019-03-16T03:55:57.092Z,20.3
2019-03-16T03:56:46.992Z,20.4
2019-03-16T03:57:37.093Z,20.4
2019-03-16T03:58:27.146Z,20.4
2019-03-16T03:59:17.288Z,20.3
2019-03-16T04:00:06.985Z,20.4
2019-03-16T04:00:57.335Z,20.3
2019-03-16T04:01:47.616Z,20.4
2019-03-16T04:02:37.468Z,20.4
2019-03-16T04:03:27.496Z,20.3
2019-03-16T04:04:19.656Z,20.4
2019-03-16T04:05:07.855Z,20.3
2019-03-16T04:05:57.371Z,20.3
2019-03-16T04:06:47.715Z,20.3
2019-03-16T04:07:37.737Z,20.3
2019-03-16T04:08:27.794Z,20.3
2019-03-16T04:09:18.190Z,20.3
2019-03-16T04:10:08.278Z,20.3
2019-03-16T04:10:57.993Z,20.4
2019-03-16T04:11:48.361Z,20.3
2019-03-16T04:12:38.432Z,20.3
2019-03-16T04:13:27.888Z,20.3
2019-03-16T04:14:18.068Z,20.3
2019-03-16T04:15:08.302Z,20.3
2019-03-16T04:15:58.395Z,20.3
2019-03-16T04:16:48.728Z,20.3
2019-03-16T04:17:38.230Z,20.3
2019-03-16T04:18:28.782Z,20.3
2019-03-16T04:19:18.863Z,20.3
2019-03-16T04:20:08.638Z,20.3
2019-03-16T04:20:58.695Z,20.3
2019-03-16T04:21:48.892Z,20.3
2019-03-16T04:22:39.108Z,20.3
2019-03-16T04:23:29.145Z,20.3
2019-03-16T04:24:19.048Z,20.3
2019-03-16T04:25:09.280Z,20.3
2019-03-16T04:25:59.296Z,20.3
2019-03-16T04:26:48.809Z,20.3
2019-03-16T04:27:39.195Z,20.3
2019-03-16T04:28:29.208Z,20.3
2019-03-16T04:29:19.271Z,20.3
2019-03-16T04:30:09.325Z,20.3
2019-03-16T04:30:59.779Z,20.3
2019-03-16T04:31:49.529Z,20.3
2019-03-16T04:32:39.521Z,20.3
2019-03-16T04:33:29.814Z,20.3
2019-03-16T04:34:32.792Z,20.3
2019-03-16T04:35:09.688Z,20.3
2019-03-16T04:35:59.999Z,20.3
2019-03-16T04:36:49.763Z,20.3
2019-03-16T04:37:40.285Z,20.3
2019-03-16T04:38:29.648Z,20.3
2019-03-16T04:39:20.314Z,20.3
2019-03-16T04:40:10.317Z,20.3
2019-03-16T04:41:00.050Z,20.3
2019-03-16T04:41:49.594Z,20.3
2019-03-16T04:42:39.777Z,20.3
2019-03-16T04:43:29.471Z,20.3
2019-03-16T04:44:19.827Z,20.3
2019-03-16T04:45:10.141Z,20.3
2019-03-16T04:45:59.924Z,20.3
2019-03-16T04:46:50.262Z,20.3
2019-03-16T04:47:40.827Z,20.3
2019-03-16T04:48:30.591Z,20.4
2019-03-16T04:49:20.106Z,20.4
2019-03-16T04:50:10.987Z,20.3
2019-03-16T04:51:00.772Z,20.4
2019-03-16T04:51:50.829Z,20.3
2019-03-16T04:52:41.146Z,20.3
2019-03-16T04:53:31.227Z,20.4
2019-03-16T04:54:21.284Z,20.3
2019-03-16T04:55:10.874Z,20.4
2019-03-16T04:56:01.389Z,20.4
2019-03-16T04:56:51.458Z,20.3
2019-03-16T04:57:41.272Z,20.4
2019-03-16T04:58:31.393Z,20.3
2019-03-16T04:59:21.725Z,20.3
2019-03-16T05:00:11.701Z,20.4
2019-03-16T05:01:01.856Z,20.3
2019-03-16T05:01:51.526Z,20.4
2019-03-16T05:02:41.901Z,20.3
2019-03-16T05:03:31.734Z,20.3
2019-03-16T05:04:21.748Z,20.4
2019-03-16T05:05:11.286Z,20.4
2019-03-16T05:06:01.058Z,20.4
2019-03-16T05:06:52.195Z,20.3
2019-03-16T05:07:42.226Z,20.3
2019-03-16T05:08:32.028Z,20.4
2019-03-16T05:09:22.049Z,20.4
2019-03-16T05:10:12.412Z,20.3
2019-03-16T05:11:02.581Z,20.4
2019-03-16T05:11:52.500Z,20.4
2019-03-16T05:12:42.362Z,20.3
2019-03-16T05:13:32.620Z,20.4
2019-03-16T05:14:22.396Z,20.4
2019-03-16T05:15:12.811Z,20.3
2019-03-16T05:16:02.250Z,20.3
2019-03-16T05:16:52.867Z,20.3
2019-03-16T05:17:42.922Z,20.3
2019-03-16T05:18:32.970Z,20.3
2019-03-16T05:19:22.745Z,20.3
2019-03-16T05:20:12.837Z,20.3
2019-03-16T05:21:03.236Z,20.3
2019-03-16T05:21:53.195Z,20.3
2019-03-16T05:22:43.003Z,20.3
2019-03-16T05:23:33.370Z,20.3
2019-03-16T05:24:23.382Z,20.3
2019-03-16T05:25:13.454Z,20.3
2019-03-16T05:26:03.004Z,20.4
2019-03-16T05:26:53.642Z,20.3
2019-03-16T05:27:43.109Z,20.3
2019-03-16T05:28:33.679Z,20.3
2019-03-16T05:29:23.479Z,20.3
2019-03-16T05:30:13.649Z,20.3
2019-03-16T05:31:03.582Z,20.3
2019-03-16T05:31:54.350Z,20.3
2019-03-16T05:32:43.990Z,20.3
2019-03-16T05:33:34.032Z,20.3
2019-03-16T05:34:23.594Z,20.3
2019-03-16T05:35:13.891Z,20.3
2019-03-16T05:36:03.708Z,20.3
2019-03-16T05:36:57.682Z,20.3
2019-03-16T05:37:44.082Z,20.3
2019-03-16T05:38:34.400Z,20.3
2019-03-16T05:39:24.169Z,20.3
2019-03-16T05:40:14.207Z,20.3
2019-03-16T05:41:04.546Z,20.3
2019-03-16T05:41:54.400Z,20.3
2019-03-16T05:42:44.695Z,20.3
2019-03-16T05:43:34.812Z,20.3
2019-03-16T05:44:24.243Z,20.3
2019-03-16T05:45:14.916Z,20.3
2019-03-16T05:46:04.651Z,20.3
2019-03-16T05:46:54.971Z,20.3
2019-03-16T05:47:45.028Z,20.3
2019-03-16T05:48:34.818Z,20.3
2019-03-16T05:49:25.129Z,20.3
2019-03-16T05:50:15.216Z,20.3
2019-03-16T05:51:05.262Z,20.3
2019-03-16T05:51:55.355Z,20.3
2019-03-16T05:52:44.840Z,20.3
2019-03-16T05:53:35.449Z,20.3
2019-03-16T05:54:25.549Z,20.3
2019-03-16T05:55:15.688Z,20.3
2019-03-16T05:56:05.632Z,20.3
2019-03-16T05:56:55.708Z,20.4
2019-03-16T05:57:45.738Z,20.3
2019-03-16T05:58:35.311Z,20.3
2019-03-16T05:59:25.595Z,20.3
2019-03-16T06:00:15.953Z,20.3
2019-03-16T06:01:05.966Z,20.3
2019-03-16T06:01:56.023Z,20.3
2019-03-16T06:02:46.095Z,20.3
2019-03-16T06:03:36.162Z,20.3
2019-03-16T06:05:32.792Z,20.3
2019-03-16T06:06:23.113Z,20.3
2019-03-16T06:07:13.594Z,20.3
2019-03-16T06:08:03.521Z,20.3
2019-03-16T06:08:53.855Z,20.3
2019-03-16T06:09:43.650Z,20.3
2019-03-16T06:10:33.161Z,20.3
2019-03-16T06:11:23.756Z,20.3
2019-03-16T06:12:13.595Z,20.3
2019-03-16T06:13:04.158Z,20.3
2019-03-16T06:13:53.921Z,20.3
2019-03-16T06:14:44.265Z,20.3
2019-03-16T06:15:33.758Z,20.3
2019-03-16T06:16:24.106Z,20.3
2019-03-16T06:17:13.886Z,20.3
2019-03-16T06:18:04.497Z,20.3
2019-03-16T06:18:53.999Z,20.3
2019-03-16T06:19:44.064Z,20.3
2019-03-16T06:20:34.398Z,20.3
2019-03-16T06:21:24.739Z,20.3
2019-03-16T06:22:14.252Z,20.3
2019-03-16T06:23:04.854Z,20.3
2019-03-16T06:23:54.656Z,20.3
2019-03-16T06:24:44.690Z,20.3
2019-03-16T06:25:35.149Z,20.3
2019-03-16T06:26:24.544Z,20.3
2019-03-16T06:27:14.863Z,20.3
2019-03-16T06:28:05.199Z,20.3
2019-03-16T06:28:55.259Z,20.4
2019-03-16T06:29:45.342Z,20.3
2019-03-16T06:30:35.365Z,20.4
2019-03-16T06:31:24.956Z,20.3
2019-03-16T06:32:15.033Z,20.3
2019-03-16T06:33:05.288Z,20.4
2019-03-16T06:33:55.331Z,20.3
2019-03-16T06:34:45.120Z,20.4
2019-03-16T06:35:35.730Z,20.3
2019-03-16T06:36:25.863Z,20.4
2019-03-16T06:37:15.586Z,20.3
2019-03-16T06:38:05.908Z,20.4
2019-03-16T06:38:55.496Z,20.3
2019-03-16T06:39:45.486Z,20.3
2019-03-16T06:40:35.623Z,20.3
2019-03-16T06:41:25.609Z,20.3
2019-03-16T06:42:16.203Z,20.3
2019-03-16T06:43:06.280Z,20.4
2019-03-16T06:43:56.056Z,20.4
2019-03-16T06:44:46.193Z,20.3
2019-03-16T06:45:35.875Z,20.4
2019-03-16T06:46:26.594Z,20.3
2019-03-16T06:47:16.011Z,20.3
2019-03-16T06:48:06.043Z,20.3
2019-03-16T06:48:56.727Z,20.3
2019-03-16T06:49:46.160Z,20.3
2019-03-16T06:50:36.510Z,20.3
2019-03-16T06:51:26.597Z,20.3
2019-03-16T06:52:16.352Z,20.3
2019-03-16T06:53:06.141Z,20.3
2019-03-16T06:53:56.472Z,20.3
2019-03-16T06:54:47.100Z,20.3
2019-03-16T06:55:36.997Z,20.3
2019-03-16T06:56:26.934Z,20.4
2019-03-16T06:57:16.805Z,20.3
2019-03-16T06:58:07.039Z,20.3
2019-03-16T06:59:00.457Z,20.4
2019-03-16T06:59:47.237Z,20.3
2019-03-16T07:00:37.229Z,20.3
2019-03-16T07:01:27.322Z,20.4
2019-03-16T07:02:17.607Z,20.4
2019-03-16T07:03:07.679Z,20.3
2019-03-16T07:05:41.424Z,20.3
2019-03-16T07:06:23.614Z,20.3
2019-03-16T07:07:13.475Z,20.3
2019-03-16T07:08:03.184Z,20.3
2019-03-16T07:08:53.543Z,20.3
2019-03-16T07:09:43.584Z,20.3
2019-03-16T07:10:33.649Z,20.3
2019-03-16T07:11:23.211Z,20.3
2019-03-16T07:12:13.756Z,20.3
2019-03-16T07:13:03.849Z,20.3
2019-03-16T07:13:53.876Z,20.3
2019-03-16T07:14:44.211Z,20.3
2019-03-16T07:15:33.979Z,20.3
2019-03-16T07:16:23.798Z,20.3
2019-03-16T07:17:14.096Z,20.3
2019-03-16T07:18:03.907Z,20.3
2019-03-16T07:19:02.381Z,20.3
2019-03-16T07:19:44.361Z,20.3
2019-03-16T07:20:34.639Z,20.3
2019-03-16T07:21:24.691Z,20.3
2019-03-16T07:22:14.740Z,20.3
2019-03-16T07:23:04.251Z,20.3
2019-03-16T07:23:54.303Z,20.3
2019-03-16T07:24:44.938Z,20.3
2019-03-16T07:25:34.689Z,20.3
2019-03-16T07:26:24.746Z,20.3
2019-03-16T07:27:28.829Z,20.3
2019-03-16T07:28:05.157Z,20.3
2019-03-16T07:28:55.198Z,20.3
2019-03-16T07:29:44.992Z,20.3
2019-03-16T07:30:38.561Z,20.3
2019-03-16T07:31:25.140Z,20.3
2019-03-16T07:32:15.470Z,20.3
2019-03-16T07:33:04.982Z,20.3
2019-03-16T07:33:55.260Z,20.3
2019-03-16T07:34:45.341Z,20.3
2019-03-16T07:35:35.412Z,20.3
2019-03-16T07:36:25.740Z,20.3
2019-03-16T07:37:15.247Z,20.3
2019-03-16T07:38:05.575Z,20.3
2019-03-16T07:38:55.364Z,20.3
2019-03-16T07:39:45.142Z,20.3
2019-03-16T07:40:36.096Z,20.2
2019-03-16T07:41:25.552Z,20.2
2019-03-16T07:42:16.130Z,20.2
2019-03-16T07:43:06.212Z,20.3
2019-03-16T07:43:56.257Z,20.2
2019-03-16T07:44:46.120Z,20.2
2019-03-16T07:45:36.377Z,20.2
2019-03-16T07:46:25.877Z,20.2
2019-03-16T07:47:16.495Z,20.3
2019-03-16T07:48:06.649Z,20.2
2019-03-16T07:48:56.329Z,20.2
2019-03-16T07:49:46.142Z,20.2
2019-03-16T07:50:36.737Z,20.2
2019-03-16T07:51:26.524Z,20.2
2019-03-16T07:52:16.304Z,20.2
2019-03-16T07:53:06.356Z,20.2
2019-03-16T07:53:56.422Z,20.2
2019-03-16T07:54:47.034Z,20.2
2019-03-16T07:55:37.091Z,20.2
2019-03-16T07:56:26.669Z,20.2
2019-03-16T07:57:16.978Z,20.2
2019-03-16T07:58:06.503Z,20.2
2019-03-16T07:58:57.049Z,20.1
2019-03-16T07:59:46.838Z,20.1
2019-03-16T08:00:36.876Z,20.2
2019-03-16T08:01:26.946Z,20.2
2019-03-16T08:02:17.289Z,20.1
2019-03-16T08:03:07.331Z,20.1
2019-03-16T08:03:56.878Z,20.2
2019-03-16T08:04:46.994Z,20.1
2019-03-16T08:05:37.568Z,20.2
2019-03-16T08:06:27.378Z,20.1
2019-03-16T08:07:17.641Z,20.1
2019-03-16T08:08:07.421Z,20.1
2019-03-16T08:08:57.967Z,20.2
2019-03-16T08:09:47.555Z,20.1
2019-03-16T08:10:37.848Z,20.1
2019-03-16T08:11:28.211Z,20.1
2019-03-16T08:12:18.289Z,20.1
2019-03-16T08:13:07.818Z,20.2
2019-03-16T08:13:57.839Z,18.6
2019-03-16T08:14:47.888Z,33.2
2019-03-16T08:15:38.215Z,53.8
2019-03-16T08:16:28.285Z,59.2
2019-03-16T08:17:18.355Z,58.8
2019-03-16T08:18:10.488Z,57.8
2019-03-16T08:18:58.490Z,56.7
2019-03-16T08:19:48.880Z,54.7
2019-03-16T08:20:38.852Z,53.3
2019-03-16T08:21:28.935Z,52.1
2019-03-16T08:22:18.412Z,51.1
2019-03-16T08:23:08.756Z,50.3
2019-03-16T08:23:58.826Z,49.5
2019-03-16T08:24:49.129Z,48.8
2019-03-16T08:25:38.392Z,48.1
2019-03-16T08:26:28.450Z,47.4
2019-03-16T08:27:19.300Z,46.8
2019-03-16T08:28:09.369Z,46.1
2019-03-16T08:29:02.526Z,45.5
2019-03-16T08:29:49.224Z,44.8
2019-03-16T08:30:39.584Z,44.3
2019-03-16T08:31:29.347Z,43.7
2019-03-16T08:32:19.393Z,43.2
2019-03-16T08:33:09.189Z,42.6
2019-03-16T08:33:59.517Z,42.1
2019-03-16T08:34:49.015Z,41.6
2019-03-16T08:35:39.944Z,42.4
2019-03-16T08:36:29.481Z,44.7
2019-03-16T08:37:19.221Z,54.8
2019-03-16T08:38:09.533Z,62.1
2019-03-16T08:39:00.162Z,61.6
2019-03-16T08:39:49.988Z,59.5
2019-03-16T08:40:40.341Z,57.9
2019-03-16T08:41:30.056Z,56.7
2019-03-16T08:42:20.461Z,55.7
2019-03-16T08:43:09.693Z,54.8
2019-03-16T08:44:00.589Z,53.9
2019-03-16T08:44:50.563Z,53.1
2019-03-16T08:45:39.874Z,52.3
2019-03-16T08:46:29.573Z,51.6
2019-03-16T08:47:20.252Z,50.8
2019-03-16T08:48:24.957Z,50.1
2019-03-16T08:49:00.029Z,49.1
2019-03-16T08:49:50.374Z,48.7
2019-03-16T08:50:40.696Z,47.9
2019-03-16T08:51:30.478Z,48.1
2019-03-16T08:52:20.856Z,49.4
2019-03-16T08:53:10.639Z,57.5
2019-03-16T08:54:00.680Z,64.1
2019-03-16T08:54:51.008Z,64.4
2019-03-16T08:55:41.345Z,63.1
2019-03-16T08:56:31.115Z,60.1
2019-03-16T08:57:21.168Z,57.6
2019-03-16T08:58:11.503Z,56.3
2019-03-16T08:59:01.353Z,55.4
2019-03-16T08:59:51.387Z,54.8
2019-03-16T09:00:41.407Z,54.1
2019-03-16T09:01:31.197Z,53.3
2019-03-16T09:02:21.252Z,52.4
2019-03-16T09:03:11.860Z,51.7
2019-03-16T09:04:01.353Z,50.9
2019-03-16T09:04:51.435Z,50.8
2019-03-16T09:05:41.825Z,50.8
2019-03-16T09:06:31.892Z,58.7
2019-03-16T09:07:21.950Z,64.7
2019-03-16T09:08:12.295Z,65.9
2019-03-16T09:09:01.716Z,65.4
2019-03-16T09:09:51.505Z,63.1
2019-03-16T09:10:41.849Z,59.6
2019-03-16T09:11:32.175Z,57.2
2019-03-16T09:12:22.332Z,57.2
2019-03-16T09:13:12.024Z,58.5
2019-03-16T09:14:02.082Z,59.9
2019-03-16T09:14:52.723Z,60.8
2019-03-16T09:15:42.537Z,60.9
2019-03-16T09:16:32.589Z,60.4
2019-03-16T09:17:22.610Z,59.7
2019-03-16T09:18:12.641Z,59.1
2019-03-16T09:19:02.997Z,58.9
2019-03-16T09:19:52.224Z,59.2
2019-03-16T09:20:43.112Z,59.6
2019-03-16T09:21:33.170Z,60.1
2019-03-16T09:22:23.225Z,60.4
2019-03-16T09:23:13.024Z,60.4
2019-03-16T09:24:03.094Z,60.3
2019-03-16T09:24:52.929Z,60.1
2019-03-16T09:25:42.900Z,60.1
2019-03-16T09:26:33.247Z,60.1
2019-03-16T09:27:34.367Z,60.3
2019-03-16T09:28:21.403Z,60.5
2019-03-16T09:29:16.959Z,60.8
2019-03-16T09:29:53.747Z,60.9
2019-03-16T09:30:43.255Z,61
2019-03-16T09:31:33.624Z,61
2019-03-16T09:32:23.642Z,61
2019-03-16T09:33:14.893Z,61.1
2019-03-16T09:34:03.782Z,61
2019-03-16T09:34:53.544Z,61
2019-03-16T09:35:44.187Z,61
2019-03-16T09:36:33.941Z,61
2019-03-16T09:37:24.270Z,61
2019-03-16T09:38:13.813Z,61
2019-03-16T09:39:04.127Z,61
2019-03-16T09:39:54.192Z,61.1
2019-03-16T09:40:44.312Z,61.3
2019-03-16T09:41:34.101Z,61.5
2019-03-16T09:42:24.441Z,61.6
2019-03-16T09:43:14.425Z,61.7
2019-03-16T09:44:04.772Z,61.8
2019-03-16T09:44:54.826Z,61.9
2019-03-16T09:45:44.343Z,62.1
2019-03-16T09:46:34.653Z,62.3
2019-03-16T09:47:24.437Z,62.5
2019-03-16T09:48:14.790Z,62.6
2019-03-16T09:49:05.133Z,62.8
2019-03-16T09:49:55.156Z,62.9
2019-03-16T09:51:34.451Z,62.9
2019-03-16T09:52:25.176Z,63
2019-03-16T09:53:15.146Z,63.1
2019-03-16T09:54:05.476Z,63.3
2019-03-16T09:54:55.058Z,63.4
2019-03-16T09:55:45.595Z,63.6
2019-03-16T09:56:35.098Z,63.8
2019-03-16T09:57:25.186Z,63.8
2019-03-16T09:58:15.767Z,63.9
2019-03-16T09:59:05.018Z,63.9
2019-03-16T09:59:55.602Z,64.1
2019-03-16T10:00:45.374Z,64.2
2019-03-16T10:01:35.236Z,64.3
2019-03-16T10:02:25.767Z,64.3
2019-03-16T10:03:15.839Z,64.4
2019-03-16T10:04:05.655Z,64.4
2019-03-16T10:06:33.131Z,64.4
2019-03-16T10:07:23.206Z,64.4
2019-03-16T10:08:13.559Z,64.4
2019-03-16T10:09:03.311Z,64.5
2019-03-16T10:09:53.655Z,64.6
2019-03-16T10:10:43.731Z,64.8
2019-03-16T10:11:33.553Z,64.8
2019-03-16T10:12:23.824Z,64.9
2019-03-16T10:13:13.611Z,64.9
2019-03-16T10:14:03.959Z,65.1
2019-03-16T10:14:53.481Z,64.6
2019-03-16T10:15:43.786Z,64.1
2019-03-16T10:16:33.838Z,64
2019-03-16T10:17:24.189Z,64.1
2019-03-16T10:18:14.053Z,64.3
2019-03-16T10:19:04.333Z,64.5
2019-03-16T10:19:53.813Z,64.6
2019-03-16T10:20:44.140Z,64.7
2019-03-16T10:21:34.238Z,64.8
2019-03-16T10:22:24.608Z,64.8
2019-03-16T10:23:14.071Z,64.8
2019-03-16T10:24:04.373Z,64.9
2019-03-16T10:24:54.716Z,64.8
2019-03-16T10:25:44.499Z,64.8
2019-03-16T10:26:37.338Z,64.8
2019-03-16T10:27:24.363Z,64.8
2019-03-16T10:28:14.677Z,64.7
2019-03-16T10:29:05.091Z,64.5
2019-03-16T10:29:54.608Z,64.3
2019-03-16T10:30:44.850Z,64.1
2019-03-16T10:31:35.203Z,63.9
2019-03-16T10:32:24.705Z,63.7
2019-03-16T10:33:15.065Z,63.6
2019-03-16T10:34:05.128Z,63.5
2019-03-16T10:34:55.420Z,63.4
2019-03-16T10:35:45.525Z,63.4
2019-03-16T10:36:34.777Z,63.3
2019-03-16T10:37:25.619Z,63.1
2019-03-16T10:38:15.665Z,62.9
2019-03-16T10:39:05.795Z,62.9
2019-03-16T10:39:55.499Z,62.8
2019-03-16T10:40:45.569Z,62.8
2019-03-16T10:41:35.064Z,62.8
2019-03-16T10:42:25.977Z,62.9
2019-03-16T10:43:15.807Z,62.9
2019-03-16T10:44:06.074Z,62.8
2019-03-16T10:44:56.127Z,62.6
2019-03-16T10:45:45.909Z,62.5
2019-03-16T10:46:36.067Z,62.4
2019-03-16T10:47:25.792Z,62.4
2019-03-16T10:48:15.816Z,62.4
2019-03-16T10:49:06.257Z,62.4
2019-03-16T10:49:56.218Z,62.5
2019-03-16T10:50:46.221Z,62.6
2019-03-16T10:51:36.614Z,62.6
2019-03-16T10:52:26.105Z,62.3
2019-03-16T10:53:16.721Z,62.1
2019-03-16T10:54:06.929Z,62
2019-03-16T10:54:56.609Z,62.1
2019-03-16T10:55:46.909Z,62
2019-03-16T10:56:36.966Z,61.8
2019-03-16T10:57:27.061Z,61.5
2019-03-16T10:58:17.084Z,61.5
2019-03-16T10:59:06.859Z,61.6
2019-03-16T10:59:56.941Z,61.6
2019-03-16T11:00:47.277Z,61.7
2019-03-16T11:01:37.343Z,61.7
2019-03-16T11:02:27.391Z,61.6
2019-03-16T11:03:17.165Z,61.6
2019-03-16T11:04:06.684Z,61.5
2019-03-16T11:04:57.096Z,61.6
2019-03-16T11:05:47.356Z,61.6
2019-03-16T11:06:37.715Z,61.5
2019-03-16T11:07:26.900Z,61.3
2019-03-16T11:08:17.828Z,60.7
2019-03-16T11:09:07.620Z,60.1
2019-03-16T11:09:57.378Z,59.9
2019-03-16T11:10:47.747Z,59.8
2019-03-16T11:11:38.098Z,59.3
2019-03-16T11:12:28.098Z,58.8
2019-03-16T11:14:57.730Z,58.7
2019-03-16T11:15:48.130Z,58.7
2019-03-16T11:16:38.472Z,58.7